Time;durP1;ratioP1;P1;durP2;ratioP2;P2;SDS_P1;SDS_P2;PMS_P1;PMS_P2;Temp;Humidity;BMP_temperature;BMP_pressure;BME280_temperature;BME280_humidity;BME280_pressure;Samples;Min_cycle;Max_cycle;Signal;HPM_P1;HPM_P2
2021/03/07 00:02:23;;;;;;;10.98;5.53;;;;;;;23.95;33.63;100999.94;4484477;32;35196;-51
2021/03/07 00:04:51;;;;;;;10.95;5.18;;;;;;;23.95;33.72;100997.22;4484529;32;34101;-45
2021/03/07 00:07:18;;;;;;;13.20;5.45;;;;;;;23.95;33.78;100997.22;4484546;32;33565;-46
2021/03/07 00:09:46;;;;;;;16.30;4.97;;;;;;;23.93;33.79;101002.87;4484558;32;34658;-49
2021/03/07 00:12:13;;;;;;;12.95;6.20;;;;;;;23.93;33.81;100988.41;4484446;32;34858;-52
2021/03/07 00:14:40;;;;;;;11.85;5.07;;;;;;;23.92;33.97;100990.28;4484773;32;33775;-50
2021/03/07 00:17:07;;;;;;;15.23;5.40;;;;;;;23.92;33.94;100981.25;4484695;32;33035;-46
2021/03/07 00:19:35;;;;;;;13.48;5.20;;;;;;;23.91;34.00;100987.75;4484484;32;34664;-47
2021/03/07 00:22:02;;;;;;;10.95;5.30;;;;;;;23.89;34.04;100979.78;4484502;32;34742;-48
2021/03/07 00:24:29;;;;;;;9.10;4.90;;;;;;;23.88;34.03;100971.81;4484282;32;33899;-49
2021/03/07 00:26:56;;;;;;;9.30;5.25;;;;;;;23.88;34.06;100980.00;4484370;32;33300;-47
2021/03/07 00:29:23;;;;;;;10.52;4.75;;;;;;;23.87;34.12;100976.41;4484422;32;33484;-46
2021/03/07 00:31:50;;;;;;;9.70;5.28;;;;;;;23.86;34.13;100976.63;4484564;32;34616;-47
2021/03/07 00:34:18;;;;;;;11.57;5.10;;;;;;;23.85;34.19;100973.06;4484357;32;34383;-47
2021/03/07 00:36:45;;;;;;;13.82;5.20;;;;;;;23.85;34.32;100972.22;4484699;32;33159;-48
2021/03/07 00:39:12;;;;;;;14.75;5.40;;;;;;;23.84;34.33;100984.16;4484478;32;33882;-48
2021/03/07 00:41:42;;;;;;;16.90;6.47;;;;;;;23.83;34.32;100980.59;4484120;32;33620;-44
2021/03/07 00:44:19;;;;;;;11.63;5.45;;;;;;;23.82;34.43;100972.59;4484272;32;33534;-48
2021/03/07 00:46:47;;;;;;;14.10;5.10;;;;;;;23.82;34.40;100968.00;4484133;32;33327;-49
2021/03/07 00:49:25;;;;;;;10.48;5.18;;;;;;;23.82;34.45;100970.72;4484336;32;33083;-49
2021/03/07 00:51:53;;;;;;;13.30;5.55;;;;;;;23.82;34.45;100967.16;4484176;32;34953;-52
2021/03/07 00:54:20;;;;;;;11.18;4.97;;;;;;;23.79;34.45;100960.22;4483885;32;34631;-53
2021/03/07 00:56:47;;;;;;;16.17;5.22;;;;;;;23.79;34.52;100956.66;4484532;32;33611;-48
2021/03/07 00:59:14;;;;;;;13.30;5.22;;;;;;;23.77;34.51;100953.28;4483948;32;33847;-67
2021/03/07 01:01:41;;;;;;;12.63;5.37;;;;;;;23.77;34.54;100956.00;4484266;32;33800;-60
2021/03/07 01:04:09;;;;;;;13.80;5.35;;;;;;;23.75;34.52;100958.13;4484528;32;33804;-52
2021/03/07 01:06:36;;;;;;;12.37;5.37;;;;;;;23.74;34.62;100957.28;4484026;32;34286;-64
2021/03/07 01:09:04;;;;;;;29.98;5.60;;;;;;;23.75;34.69;100958.13;4484294;32;33688;-48
2021/03/07 01:11:31;;;;;;;11.55;4.97;;;;;;;23.73;34.65;100952.84;4484497;32;33840;-57
2021/03/07 01:13:58;;;;;;;16.42;5.15;;;;;;;23.74;34.69;100951.81;4483905;32;33815;-51
2021/03/07 01:16:25;;;;;;;14.98;4.95;;;;;;;23.73;34.69;100947.38;4483880;32;33474;-57
2021/03/07 01:18:52;;;;;;;11.00;4.50;;;;;;;23.71;34.70;100933.13;4484086;32;33987;-54
2021/03/07 01:21:19;;;;;;;12.30;4.82;;;;;;;23.71;34.75;100926.84;4484038;32;33846;-63
2021/03/07 01:23:46;;;;;;;11.52;4.80;;;;;;;23.69;34.75;100932.50;4484082;32;33769;-49
2021/03/07 01:26:13;;;;;;;12.48;4.60;;;;;;;23.69;34.92;100921.63;4484316;32;33070;-47
2021/03/07 01:28:41;;;;;;;11.32;4.95;;;;;;;23.70;35.00;100927.91;4483841;32;34269;-49
2021/03/07 01:31:07;;;;;;;12.18;4.62;;;;;;;23.68;35.02;100918.03;4484110;32;34868;-59
2021/03/07 01:33:35;;;;;;;17.90;5.18;;;;;;;23.67;34.97;100918.22;4484405;32;33908;-49
2021/03/07 01:36:03;;;;;;;15.48;5.25;;;;;;;23.67;34.98;100904.59;4483889;32;33415;-50
2021/03/07 01:38:30;;;;;;;14.82;5.82;;;;;;;23.66;34.95;100898.31;4483772;32;33994;-46
2021/03/07 01:40:57;;;;;;;14.02;4.70;;;;;;;23.65;34.92;100901.25;4483909;32;35082;-47
2021/03/07 01:43:25;;;;;;;12.75;5.07;;;;;;;23.66;34.89;100901.03;4483828;32;33888;-65
2021/03/07 01:45:52;;;;;;;13.02;5.62;;;;;;;23.64;35.02;100894.09;4483915;32;34220;-64
2021/03/07 01:48:20;;;;;;;13.07;4.95;;;;;;;23.64;35.02;100889.53;4484237;32;33808;-67
2021/03/07 01:50:50;;;;;;;12.93;5.12;;;;;;;23.63;35.11;100893.22;4483699;32;34560;-65
2021/03/07 01:53:17;;;;;;;12.90;3.95;;;;;;;23.61;35.16;100889.03;4483641;32;33852;-61
2021/03/07 01:55:45;;;;;;;22.67;5.37;;;;;;;23.62;34.84;100894.28;4483156;32;32874;-49
2021/03/07 01:58:25;;;;;;;14.93;4.95;;;;;;;23.62;34.79;100880.66;4482542;32;33753;-48
2021/03/07 02:00:52;;;;;;;18.40;5.53;;;;;;;23.63;34.71;100881.50;4483177;32;33901;-49
2021/03/07 02:03:19;;;;;;;16.27;5.53;;;;;;;23.62;34.58;100883.38;4483437;32;33389;-48
2021/03/07 02:05:46;;;;;;;18.75;5.55;;;;;;;23.60;34.52;100882.75;4482782;32;34343;-48
2021/03/07 02:08:14;;;;;;;20.30;6.12;;;;;;;23.59;34.48;100885.66;4483578;32;34823;-48
2021/03/07 02:10:54;;;;;;;14.27;5.57;;;;;;;23.58;34.56;100879.38;4480445;32;93237;-46
2021/03/07 02:13:23;;;;;;;10.40;4.85;;;;;;;23.58;34.59;100873.09;4483634;32;33739;-49
2021/03/07 02:15:54;;;;;;;20.35;5.62;;;;;;;23.57;34.61;100871.41;4482326;32;33298;-48
2021/03/07 02:18:22;;;;;;;12.37;4.97;;;;;;;23.56;34.65;100870.56;4469953;32;34203;-52
2021/03/07 02:20:58;;;;;;;13.57;5.32;;;;;;;23.56;34.64;100877.91;4459207;32;34721;-46
2021/03/07 02:23:29;;;;;;;14.02;5.75;;;;;;;23.54;34.66;100878.09;4467760;32;33726;-47
2021/03/07 02:25:56;;;;;;;12.50;5.18;;;;;;;23.53;34.66;100876.41;4467697;32;33542;-47
2021/03/07 02:28:24;;;;;;;17.17;5.35;;;;;;;23.51;34.68;100864.91;4466551;32;33969;-47
2021/03/07 02:30:51;;;;;;;12.05;5.07;;;;;;;23.51;34.68;100873.06;4467667;32;33771;-50
2021/03/07 02:33:32;;;;;;;11.18;5.15;;;;;;;23.50;34.77;100860.50;4466317;32;34815;-49
2021/03/07 02:36:16;;;;;;;11.60;5.70;;;;;;;23.52;34.73;100857.56;4466345;32;33519;-46
2021/03/07 02:38:44;;;;;;;12.95;5.30;;;;;;;23.49;34.73;100856.06;4466429;32;34676;-46
2021/03/07 02:41:11;;;;;;;9.40;5.30;;;;;;;23.48;34.81;100850.81;4467375;32;34716;-50
2021/03/07 02:43:40;;;;;;;19.85;5.10;;;;;;;23.48;34.92;100851.66;4466273;32;34482;-47
2021/03/07 02:46:13;;;;;;;12.52;5.97;;;;;;;23.47;34.94;100843.69;4478274;32;33419;-46
2021/03/07 02:48:41;;;;;;;13.65;5.30;;;;;;;23.47;35.00;100844.53;4483134;32;33801;-46
2021/03/07 02:51:08;;;;;;;16.42;5.60;;;;;;;23.47;35.00;100851.88;4480869;32;33966;-48
2021/03/07 02:53:35;;;;;;;10.63;5.05;;;;;;;23.45;34.99;100843.87;4468948;32;33923;-49
2021/03/07 02:56:05;;;;;;;12.98;5.07;;;;;;;23.46;35.04;100842.88;4482944;32;33925;-46
2021/03/07 02:58:32;;;;;;;12.15;5.55;;;;;;;23.45;35.05;100840.31;4481796;32;33516;-51
2021/03/07 03:01:00;;;;;;;14.98;5.40;;;;;;;23.47;35.09;100835.53;4483313;32;34703;-48
2021/03/07 03:03:30;;;;;;;11.85;4.70;;;;;;;23.43;35.11;100835.09;4481640;32;34458;-47
2021/03/07 03:06:00;;;;;;;21.08;5.05;;;;;;;23.45;35.11;100843.03;4483085;32;33279;-50
2021/03/07 03:08:29;;;;;;;13.13;5.43;;;;;;;23.42;35.17;100836.97;4483572;32;33888;-48
2021/03/07 03:10:56;;;;;;;10.55;4.68;;;;;;;23.42;35.16;100841.59;4471090;32;33822;-46
2021/03/07 03:13:32;;;;;;;14.57;5.32;;;;;;;23.42;35.17;100836.13;4484867;32;33466;-47
2021/03/07 03:16:00;;;;;;;13.68;5.82;;;;;;;23.41;35.20;100845.34;4463923;32;33311;-48
2021/03/07 03:18:31;;;;;;;8.65;4.37;;;;;;;23.41;35.20;100839.91;4470938;32;32051;-47
2021/03/07 03:20:59;;;;;;;12.95;4.85;;;;;;;23.40;35.35;100838.19;4483676;32;34784;-49
2021/03/07 03:23:26;;;;;;;11.88;4.80;;;;;;;23.39;35.37;100840.09;4470517;32;34878;-54
2021/03/07 03:25:53;;;;;;;20.25;4.47;;;;;;;23.40;35.32;100843.66;4484864;32;33680;-49
2021/03/07 03:28:22;;;;;;;15.10;4.45;;;;;;;23.38;35.35;100832.97;4470866;32;33534;-46
2021/03/07 03:30:49;;;;;;;9.57;4.70;;;;;;;23.37;35.41;100831.28;4485075;32;34826;-46
2021/03/07 03:33:16;;;;;;;12.18;5.30;;;;;;;23.37;35.35;100828.56;4485143;32;34376;-49
2021/03/07 03:35:44;;;;;;;11.80;5.28;;;;;;;23.37;35.39;100825.00;4485062;32;33383;-46
2021/03/07 03:38:11;;;;;;;8.98;4.60;;;;;;;23.37;35.41;100828.56;4484694;32;34414;-47
2021/03/07 03:40:38;;;;;;;8.00;4.12;;;;;;;23.37;35.39;100830.47;4483672;32;33611;-47
2021/03/07 03:43:09;;;;;;;10.55;4.30;;;;;;;23.35;35.37;100822.47;4470665;32;34524;-48
2021/03/07 03:45:38;;;;;;;12.10;5.28;;;;;;;23.34;35.50;100828.97;4484885;32;33130;-49
2021/03/07 03:48:11;;;;;;;10.85;4.95;;;;;;;23.34;35.46;100818.06;4484601;32;33845;-48
2021/03/07 03:50:40;;;;;;;13.75;4.75;;;;;;;23.35;35.36;100816.19;4470816;32;33932;-50
2021/03/07 03:53:11;;;;;;;13.40;5.05;;;;;;;23.35;35.39;100824.34;4483488;32;35799;-46
2021/03/07 03:55:40;;;;;;;12.63;4.68;;;;;;;23.33;35.47;100819.13;4483692;32;33340;-49
2021/03/07 03:58:08;;;;;;;13.48;4.55;;;;;;;23.33;35.45;100821.00;4470468;32;34620;-50
2021/03/07 04:00:37;;;;;;;12.57;4.57;;;;;;;23.34;35.49;100814.50;4483707;32;33825;-48
2021/03/07 04:03:04;;;;;;;9.80;4.78;;;;;;;23.33;35.49;100823.72;4457867;32;34329;-48
2021/03/07 04:05:32;;;;;;;12.65;4.62;;;;;;;23.32;35.48;100820.16;4483549;32;33119;-46
2021/03/07 04:07:59;;;;;;;10.27;4.55;;;;;;;23.32;35.49;100817.44;4483378;32;33841;-48
2021/03/07 04:10:26;;;;;;;11.55;4.47;;;;;;;23.30;35.58;100816.78;4483397;32;33834;-48
2021/03/07 04:12:57;;;;;;;9.98;4.43;;;;;;;23.30;35.49;100819.50;4484225;32;33997;-47
2021/03/07 04:15:24;;;;;;;10.13;4.45;;;;;;;23.30;35.55;100816.78;4476386;32;33567;-52
2021/03/07 04:17:52;;;;;;;11.77;4.85;;;;;;;23.30;35.57;100813.22;4467028;32;33832;-48
2021/03/07 04:20:19;;;;;;;12.10;4.32;;;;;;;23.30;35.62;100816.78;4482492;32;33801;-49
2021/03/07 04:22:49;;;;;;;10.30;4.55;;;;;;;23.28;35.56;100813.44;4483268;32;34622;-50
2021/03/07 04:25:16;;;;;;;;;;;;;;;23.28;35.55;100812.59;4484687;31;33354;-49
2021/03/07 04:27:43;;;;;;;13.82;4.75;;;;;;;23.37;35.48;100811.38;4484708;32;34213;-47
2021/03/07 04:30:10;;;;;;;11.43;4.75;;;;;;;23.30;35.60;100807.78;4470487;32;34078;-49
2021/03/07 04:32:38;;;;;;;12.20;4.62;;;;;;;23.26;35.64;100798.31;4483073;32;34478;-49
2021/03/07 04:35:05;;;;;;;8.25;4.47;;;;;;;23.25;35.65;100799.37;4470306;32;34269;-48
2021/03/07 04:37:32;;;;;;;11.27;4.70;;;;;;;23.24;35.66;100800.44;4484348;32;33818;-47
2021/03/07 04:40:00;;;;;;;8.57;4.15;;;;;;;23.25;35.65;100797.50;4484455;32;33944;-49
2021/03/07 04:42:27;;;;;;;13.85;4.50;;;;;;;23.24;35.66;100794.97;4484383;32;33859;-49
2021/03/07 04:44:54;;;;;;;9.70;3.97;;;;;;;23.24;35.67;100800.44;4484198;32;33497;-48
2021/03/07 04:47:21;;;;;;;7.57;4.20;;;;;;;23.23;35.70;100798.75;4484260;32;34990;-46
2021/03/07 04:49:48;;;;;;;8.45;4.00;;;;;;;23.24;35.72;100797.69;4482461;32;33889;-46
2021/03/07 04:52:15;;;;;;;8.30;4.47;;;;;;;23.24;35.71;100794.97;4484094;32;33705;-45
2021/03/07 04:54:43;;;;;;;11.12;4.22;;;;;;;23.22;35.69;100795.16;4484547;32;33296;-44
2021/03/07 04:57:10;;;;;;;10.60;4.62;;;;;;;23.22;35.81;100786.16;4484215;32;35152;-44
2021/03/07 04:59:37;;;;;;;14.35;4.40;;;;;;;23.22;35.88;100789.72;4482272;32;33957;-45
2021/03/07 05:02:04;;;;;;;11.38;4.35;;;;;;;23.22;35.85;100792.44;4481569;32;33713;-47
2021/03/07 05:04:32;;;;;;;9.07;4.10;;;;;;;23.21;35.82;100796.22;4483863;32;34207;-44
2021/03/07 05:07:02;;;;;;;10.43;4.12;;;;;;;23.21;35.85;100793.47;4484296;32;33823;-47
2021/03/07 05:09:29;;;;;;;10.25;4.50;;;;;;;23.20;35.87;100789.09;4483967;32;34320;-44
2021/03/07 05:11:56;;;;;;;10.10;4.18;;;;;;;23.19;35.87;100790.13;4484060;32;34778;-48
2021/03/07 05:14:23;;;;;;;8.38;3.95;;;;;;;23.19;35.86;100778.41;4484304;32;33353;-48
2021/03/07 05:16:50;;;;;;;7.90;3.90;;;;;;;23.19;35.84;100789.28;4483955;32;33837;-46
2021/03/07 05:19:17;;;;;;;9.27;4.30;;;;;;;23.19;35.84;100789.28;4484337;32;33889;-44
2021/03/07 05:21:45;;;;;;;11.15;4.15;;;;;;;23.15;35.85;100784.25;4483441;32;34588;-47
2021/03/07 05:24:12;;;;;;;11.00;4.18;;;;;;;23.17;35.88;100779.47;4483891;32;34029;-47
2021/03/07 05:26:39;;;;;;;8.77;4.07;;;;;;;23.16;35.85;100775.03;4483884;32;33942;-45
2021/03/07 05:29:06;;;;;;;10.10;4.22;;;;;;;23.15;35.79;100770.62;4478449;32;33916;-46
2021/03/07 05:31:33;;;;;;;11.43;4.10;;;;;;;23.16;35.91;100768.75;4468487;32;33716;-46
2021/03/07 05:34:00;;;;;;;12.32;4.07;;;;;;;23.15;35.95;100770.62;4468364;32;33409;-45
2021/03/07 05:36:27;;;;;;;8.68;4.10;;;;;;;23.15;35.89;100770.62;4468448;32;33470;-52
2021/03/07 05:38:55;;;;;;;14.68;4.32;;;;;;;23.15;35.94;100765.19;4471625;32;33870;-53
2021/03/07 05:41:23;;;;;;;8.68;4.22;;;;;;;23.14;35.97;100768.13;4483848;32;33606;-45
2021/03/07 05:43:50;;;;;;;9.48;3.90;;;;;;;23.14;35.96;100762.69;4484078;32;34054;-45
2021/03/07 05:46:17;;;;;;;13.05;4.62;;;;;;;23.16;35.76;100766.88;4483845;32;33921;-56
2021/03/07 05:48:44;;;;;;;15.43;4.70;;;;;;;23.14;35.91;100763.50;4483757;32;33822;-45
2021/03/07 05:51:15;;;;;;;8.30;4.00;;;;;;;23.21;35.98;100758.09;4483665;32;35108;-45
2021/03/07 05:53:45;;;;;;;7.40;3.70;;;;;;;23.36;35.90;100763.38;4483729;32;33181;-47
2021/03/07 05:56:13;;;;;;;11.73;4.15;;;;;;;23.55;35.70;100759.06;4483855;32;33515;-49
2021/03/07 05:58:40;;;;;;;10.10;3.70;;;;;;;23.73;35.48;100758.53;4483728;32;35011;-53
2021/03/07 06:01:07;;;;;;;10.40;4.12;;;;;;;23.90;35.28;100755.22;4482382;32;33936;-51
2021/03/07 06:03:35;;;;;;;11.18;3.62;;;;;;;24.07;35.08;100755.69;4483759;32;33024;-55
2021/03/07 06:06:02;;;;;;;10.02;3.90;;;;;;;24.24;34.87;100753.38;4482509;32;33787;-47
2021/03/07 06:08:29;;;;;;;8.20;3.85;;;;;;;24.39;34.68;100750.50;4483438;32;34774;-47
2021/03/07 06:10:56;;;;;;;13.32;3.83;;;;;;;24.54;34.46;100750.28;4483649;32;33816;-50
2021/03/07 06:13:23;;;;;;;10.13;4.03;;;;;;;24.65;34.31;100749.63;4483430;32;34273;-45
2021/03/07 06:15:51;;;;;;;8.50;3.60;;;;;;;24.75;34.15;100743.72;4468983;32;33906;-44
2021/03/07 06:18:20;;;;;;;7.78;3.40;;;;;;;24.83;34.07;100748.97;4453844;32;33733;-46
2021/03/07 06:20:50;;;;;;;9.65;3.72;;;;;;;24.88;34.05;100743.69;4483420;32;33931;-47
2021/03/07 06:23:17;;;;;;;8.35;3.67;;;;;;;24.92;34.06;100744.97;4483535;32;33537;-45
2021/03/07 06:25:48;;;;;;;13.75;3.85;;;;;;;24.98;34.06;100746.00;4483182;32;33817;-62
2021/03/07 06:28:20;;;;;;;9.00;3.60;;;;;;;25.00;34.22;100755.66;4483549;32;33877;-45
2021/03/07 06:30:48;;;;;;;12.05;4.00;;;;;;;25.01;34.29;100751.87;4483515;32;33576;-48
2021/03/07 06:33:30;;;;;;;11.70;3.87;;;;;;;25.02;34.28;100752.69;4483348;32;33108;-51
2021/03/07 06:36:17;;;;;;;7.87;3.83;;;;;;;25.03;34.24;100751.63;4483170;32;33541;-45
2021/03/07 06:39:01;;;;;;;25.40;4.35;;;;;;;25.03;34.18;100749.75;4483374;32;34714;-48
2021/03/07 06:41:30;;;;;;;9.85;4.07;;;;;;;25.01;34.17;100749.13;4484467;32;33971;-51
2021/03/07 06:44:14;;;;;;;10.05;3.95;;;;;;;24.96;34.20;100740.75;4485181;32;33473;-45
2021/03/07 06:46:47;;;;;;;12.30;4.22;;;;;;;24.96;34.20;100740.75;4485140;32;34711;-45
2021/03/07 06:49:21;;;;;;;10.85;3.85;;;;;;;24.92;34.26;100737.59;4485010;32;33483;-47
2021/03/07 06:51:49;;;;;;;11.32;3.92;;;;;;;24.91;34.32;100740.56;4484422;32;34506;-46
2021/03/07 06:54:18;;;;;;;8.63;3.58;;;;;;;24.87;34.26;100740.12;4484912;32;33387;-49
2021/03/07 06:56:46;;;;;;;14.05;3.97;;;;;;;24.84;34.32;100735.09;4485347;32;33642;-50
2021/03/07 06:59:23;;;;;;;7.53;3.78;;;;;;;24.83;34.27;100738.06;4459235;32;33780;-46
2021/03/07 07:01:52;;;;;;;10.10;4.03;;;;;;;24.81;34.29;100732.81;4469366;32;34547;-45
2021/03/07 07:04:20;;;;;;;8.65;3.65;;;;;;;24.77;34.38;100738.91;4469393;32;33035;-47
2021/03/07 07:07:03;;;;;;;10.52;3.55;;;;;;;24.75;34.35;100730.91;4469287;32;34731;-48
2021/03/07 07:09:32;;;;;;;10.75;3.83;;;;;;;24.73;34.51;100724.84;4469186;32;34114;-46
2021/03/07 07:11:59;;;;;;;7.68;4.05;;;;;;;24.69;34.45;100729.03;4484712;32;33693;-48
2021/03/07 07:14:41;;;;;;;8.85;3.50;;;;;;;24.65;34.50;100723.16;4485036;32;33976;-46
2021/03/07 07:17:12;;;;;;;11.05;3.33;;;;;;;24.63;34.49;100725.28;4484992;32;34638;-47
2021/03/07 07:19:41;;;;;;;10.43;3.83;;;;;;;24.60;34.61;100725.69;4485317;32;33947;-48
2021/03/07 07:22:08;;;;;;;12.65;3.45;;;;;;;24.59;34.60;100724.03;4484818;32;33831;-46
2021/03/07 07:24:35;;;;;;;11.05;4.12;;;;;;;24.58;34.60;100719.63;4483817;32;33357;-47
2021/03/07 07:27:03;;;;;;;8.95;3.60;;;;;;;24.56;34.69;100731.78;4484789;32;34532;-47
2021/03/07 07:29:30;;;;;;;12.98;3.97;;;;;;;24.51;34.75;100723.41;4484663;32;34741;-49
2021/03/07 07:32:16;;;;;;;6.72;3.30;;;;;;;24.48;34.78;100719.22;4484750;32;34054;-49
2021/03/07 07:34:50;;;;;;;9.82;3.97;;;;;;;24.48;34.82;100713.78;4483458;32;34968;-47
2021/03/07 07:37:28;;;;;;;11.12;3.40;;;;;;;24.41;34.91;100721.94;4483549;32;33939;-48
2021/03/07 07:39:55;;;;;;;10.55;3.67;;;;;;;24.39;34.90;100724.06;4484875;32;33880;-47
2021/03/07 07:42:27;;;;;;;16.77;4.00;;;;;;;24.37;34.93;100722.56;4470855;32;33738;-46
2021/03/07 07:44:55;;;;;;;9.05;3.50;;;;;;;24.34;34.91;100715.63;4484852;32;33444;-47
2021/03/07 07:47:22;;;;;;;11.27;3.60;;;;;;;24.31;34.96;100713.31;4484707;32;33617;-49
2021/03/07 07:49:51;;;;;;;22.02;3.95;;;;;;;24.29;34.96;100706.38;4484999;32;33756;-46
2021/03/07 07:52:23;;;;;;;22.67;6.00;;;;;;;24.27;35.03;100711.22;4484014;32;35124;-45
2021/03/07 07:54:55;;;;;;;13.62;4.15;;;;;;;24.27;35.05;100708.50;4484554;32;33384;-49
2021/03/07 07:57:42;;;;;;;15.55;3.72;;;;;;;24.23;35.04;100704.50;4484691;32;34529;-46
2021/03/07 08:00:10;;;;;;;12.98;3.90;;;;;;;24.23;35.07;100701.78;4484487;32;33996;-46
2021/03/07 08:02:46;;;;;;;10.43;3.37;;;;;;;24.20;35.17;100694.84;4484470;32;33929;-47
2021/03/07 08:05:19;;;;;;;11.90;3.85;;;;;;;24.17;35.19;100696.12;4469031;32;33554;-49
2021/03/07 08:07:56;;;;;;;16.60;3.97;;;;;;;24.15;35.14;100698.22;4468892;32;33894;-47
2021/03/07 08:10:36;;;;;;;15.40;4.28;;;;;;;24.13;35.18;100703.03;4468964;32;33983;-51
2021/03/07 08:13:04;;;;;;;13.45;3.92;;;;;;;24.10;35.17;100699.88;4471200;32;34695;-47
2021/03/07 08:15:39;;;;;;;13.82;4.12;;;;;;;24.09;35.13;100690.87;4484523;32;34101;-47
2021/03/07 08:18:07;;;;;;;13.00;3.72;;;;;;;24.06;35.21;100691.31;4484479;32;33909;-47
2021/03/07 08:20:41;;;;;;;15.57;4.28;;;;;;;24.05;35.21;100692.31;4484842;32;33849;-47
2021/03/07 08:23:15;;;;;;;15.65;3.72;;;;;;;24.03;35.33;100686.25;4484019;32;33778;-47
2021/03/07 08:25:48;;;;;;;16.50;4.15;;;;;;;24.02;35.37;100687.31;4484283;31;34325;-49
2021/03/07 08:28:28;;;;;;;16.60;3.78;;;;;;;24.01;35.25;100682.03;4484710;32;33948;-51
2021/03/07 08:30:58;;;;;;;12.25;6.68;;;;;;;24.01;34.98;100684.78;4484423;32;34559;-64
2021/03/07 08:33:38;;;;;;;14.98;6.20;;;;;;;23.96;28.69;100682.66;4484283;32;33587;-61
2021/03/07 08:36:16;;;;;;;13.70;5.53;;;;;;;23.90;29.69;100680.78;4484689;32;34232;-57
2021/03/07 08:38:53;;;;;;;15.23;5.22;;;;;;;23.86;31.16;100676.81;4484399;32;34728;-47
2021/03/07 08:41:24;;;;;;;14.68;5.07;;;;;;;23.81;31.65;100677.41;4482062;31;33643;-58
2021/03/07 08:43:56;;;;;;;12.48;4.57;;;;;;;23.79;31.66;100668.63;4484520;31;34459;-54
2021/03/07 08:46:53;;;;;;;10.77;4.43;;;;;;;23.85;31.85;100666.94;4482239;31;34108;-52
2021/03/07 08:49:22;;;;;;;15.25;4.72;;;;;;;23.97;31.95;100653.53;4481299;31;34567;-48
2021/03/07 08:51:51;;;;;;;17.90;4.62;;;;;;;24.07;32.18;100653.97;4480469;31;34017;-63
2021/03/07 08:54:22;;;;;;;13.23;4.70;;;;;;;24.17;32.11;100652.47;4482336;31;33800;-64
2021/03/07 08:56:50;;;;;;;15.20;4.57;;;;;;;24.27;32.11;100651.22;4483130;32;34252;-57
2021/03/07 08:59:17;;;;;;;27.00;5.05;;;;;;;24.35;32.19;100648.28;4494895;31;33608;-67
2021/03/07 09:01:48;;;;;;;16.73;4.93;;;;;;;24.42;32.33;100641.78;4498322;31;34112;-64
2021/03/07 09:04:16;;;;;;;14.75;4.45;;;;;;;24.49;32.50;100644.50;4492051;31;34917;-62
2021/03/07 09:06:44;;;;;;;18.10;5.22;;;;;;;24.54;32.53;100643.87;4483987;32;33403;-51
2021/03/07 09:09:16;;;;;;;13.50;4.37;;;;;;;24.57;32.64;100635.22;4483638;32;34633;-64
2021/03/07 09:12:00;;;;;;;13.40;3.90;;;;;;;24.62;32.70;100624.50;4497036;31;33888;-60
2021/03/07 09:14:33;;;;;;;11.52;4.03;;;;;;;24.64;32.78;100625.16;4499989;31;33991;-57
2021/03/07 09:17:02;;;;;;;16.58;4.47;;;;;;;24.68;32.80;100629.12;4499685;31;35004;-59
2021/03/07 09:19:33;;;;;;;13.52;4.28;;;;;;;24.66;32.88;100625.75;4499810;31;34749;-54
2021/03/07 09:22:07;;;;;;;9.43;4.28;;;;;;;24.65;32.85;100624.94;4499850;31;33827;-61
2021/03/07 09:24:34;;;;;;;13.27;4.32;;;;;;;24.68;32.77;100610.03;4499712;31;34517;-60
2021/03/07 09:27:12;;;;;;;20.92;4.78;;;;;;;24.66;32.76;100610.22;4499779;31;33269;-51
2021/03/07 09:30:02;;;;;;;12.05;3.60;;;;;;;24.68;32.84;100610.03;4499493;31;34610;-49
2021/03/07 09:32:36;;;;;;;21.48;5.15;;;;;;;24.66;32.88;100610.22;4499785;31;33888;-67
2021/03/07 09:35:34;;;;;;;15.63;5.28;;;;;;;24.65;33.01;100597.63;4499697;31;33467;-49
2021/03/07 09:38:06;;;;;;;14.45;4.03;;;;;;;24.62;33.12;100592.63;4499475;31;33263;-69
2021/03/07 09:40:37;;;;;;;11.15;4.32;;;;;;;24.57;33.03;100588.84;4480189;32;33646;-69
2021/03/07 09:43:12;;;;;;;15.82;4.18;;;;;;;24.56;33.00;100587.19;4483946;32;33926;-62
2021/03/07 09:45:43;;;;;;;12.52;4.53;;;;;;;24.56;33.05;100587.19;4483887;32;33685;-52
2021/03/07 09:48:21;;;;;;;14.63;4.97;;;;;;;24.54;33.15;100584.69;4484188;31;34241;-59
2021/03/07 09:50:49;;;;;;;17.95;4.97;;;;;;;24.54;33.27;100590.13;4499604;31;34695;-62
2021/03/07 09:53:17;;;;;;;15.25;4.80;;;;;;;24.52;33.30;100578.56;4485249;31;34838;-47
2021/03/07 09:55:44;;;;;;;12.55;4.32;;;;;;;24.51;33.34;100576.06;4485323;31;33226;-54
2021/03/07 09:58:11;;;;;;;11.30;4.32;;;;;;;24.48;33.47;100569.19;4499481;31;34054;-66
2021/03/07 10:00:40;;;;;;;10.57;4.53;;;;;;;24.45;33.56;100572.31;4499396;31;33857;-67
2021/03/07 10:03:21;;;;;;;11.27;3.83;;;;;;;24.43;33.63;100561.63;4499271;31;35540;-54
2021/03/07 10:06:04;;;;;;;14.65;4.47;;;;;;;24.43;33.70;100561.63;4499405;31;34702;-52
2021/03/07 10:08:34;;;;;;;11.57;4.10;;;;;;;24.41;33.77;100555.53;4499082;31;33642;-53
2021/03/07 10:11:15;;;;;;;16.45;5.00;;;;;;;24.37;33.95;100557.03;4499231;31;34424;-63
2021/03/07 10:13:42;;;;;;;11.70;4.45;;;;;;;24.41;33.96;100543.78;4481902;32;34740;-46
2021/03/07 10:16:09;;;;;;;16.92;4.30;;;;;;;24.34;33.98;100542.94;4482685;32;34342;-69
2021/03/07 10:18:39;;;;;;;20.88;4.05;;;;;;;24.32;33.93;100547.78;4483490;32;34031;-59
2021/03/07 10:21:07;;;;;;;13.38;4.25;;;;;;;24.31;33.83;100538.75;4482322;32;34632;-59
2021/03/07 10:23:34;;;;;;;22.08;4.18;;;;;;;24.30;33.85;100536.25;4483548;32;33669;-57
2021/03/07 10:26:03;;;;;;;17.35;4.87;;;;;;;24.28;33.87;100541.91;4483105;32;34507;-54
2021/03/07 10:28:34;;;;;;;20.40;4.47;;;;;;;24.27;33.93;100533.94;4481877;32;33011;-50
2021/03/07 10:31:12;;;;;;;13.98;4.20;;;;;;;24.25;33.98;100536.03;4483289;32;33571;-60
2021/03/07 10:33:40;;;;;;;14.57;4.62;;;;;;;24.25;33.99;100541.50;4483145;32;33534;-55
2021/03/07 10:36:10;;;;;;;15.13;4.55;;;;;;;24.22;34.05;100528.31;4483356;32;34619;-59
2021/03/07 10:39:00;;;;;;;18.52;5.35;;;;;;;24.20;34.11;100525.78;4483083;32;34283;-59
2021/03/07 10:41:30;;;;;;;;;;;;;;;24.18;34.14;100519.72;4461594;32;34250;-57
2021/03/07 10:43:59;;;;;;;16.98;4.70;;;;;;;24.28;33.99;100519.25;4467481;32;34105;-48
2021/03/07 10:46:29;;;;;;;11.98;3.75;;;;;;;24.17;34.20;100507.97;4468475;32;33835;-60
2021/03/07 10:49:17;;;;;;;;;;;;;;;24.14;34.27;100505.66;4483098;32;33271;-52
2021/03/07 10:51:44;;;;;;;12.25;4.05;;;;;;;24.24;34.12;100491.56;4480632;32;33742;-57
2021/03/07 10:54:11;;;;;;;11.38;3.67;;;;;;;24.14;34.30;100489.31;4467236;32;33802;-63
2021/03/07 10:56:40;;;;;;;10.85;4.18;;;;;;;24.11;34.39;100483.47;4467266;32;33977;-54
2021/03/07 10:59:09;;;;;;;13.25;4.05;;;;;;;24.10;34.45;100488.06;4467390;32;33516;-57
2021/03/07 11:01:38;;;;;;;14.43;4.18;;;;;;;24.09;34.48;100478.19;4467344;32;33846;-58
2021/03/07 11:04:06;;;;;;;16.17;4.75;;;;;;;24.06;34.51;100480.50;4453104;32;33983;-55
2021/03/07 11:06:33;;;;;;;9.48;3.75;;;;;;;24.04;34.63;100469.84;4466906;32;34571;-68
2021/03/07 11:09:00;;;;;;;17.87;3.72;;;;;;;24.04;34.60;100469.00;4467184;32;33413;-49
2021/03/07 11:11:27;;;;;;;12.37;4.62;;;;;;;24.02;34.67;100457.50;4467078;32;33813;-52
2021/03/07 11:13:54;;;;;;;14.77;4.15;;;;;;;24.01;34.71;100453.91;4466892;32;33821;-61
2021/03/07 11:16:21;;;;;;;10.48;3.83;;;;;;;24.00;34.71;100448.66;4466982;32;33816;-65
2021/03/07 11:18:49;;;;;;;14.00;4.05;;;;;;;23.99;34.69;100436.09;4466998;32;34129;-53
2021/03/07 11:21:16;;;;;;;15.23;4.32;;;;;;;23.98;34.73;100438.00;4466811;32;33880;-69
2021/03/07 11:23:43;;;;;;;12.25;3.92;;;;;;;23.98;34.73;100426.25;4452781;32;33990;-52
2021/03/07 11:26:10;;;;;;;14.13;4.75;;;;;;;23.97;34.84;100422.69;4467551;32;34405;-55
2021/03/07 11:28:37;;;;;;;10.50;4.10;;;;;;;23.95;34.87;100405.69;4468773;32;33069;-58
2021/03/07 11:31:04;;;;;;;17.05;4.28;;;;;;;23.94;34.89;100412.22;4469130;32;34625;-51
2021/03/07 11:33:38;;;;;;;10.60;4.00;;;;;;;23.93;34.90;100410.53;4468955;32;34866;-54